Terminal Aerodrome Forecast
Issued by NWS Topeka, KS

Home | Current Version | Previous Version | Text Only | Print | Product List | Glossary Off
Versions: 1 2 3 4 5 6 7 8 9 10 11 12 13 14 15 16 17 18 19 20

000
FTUS43 KTOP 242322
TAFTOP
TAF
KTOP 242322Z 2500/2524 30005KT P6SM SKC
      TEMPO 2512/2513 3SM BR MIFG=

USA.gov is the U.S. government's official web portal to all federal, state and local government web resources and services.